Main page
METAR-TAF:

METAR-TAF

Airports :

Kirkwall, Scotland

Kirkwall Airport

latitude: 58-57N, longitude: 002-54W, elevation: 21 m

Current weather observation

The report was made 25 minutes ago, at 01:50 UTC
Wind 7 kt from the South
Temperature 3°C
Humidity 87%
Pressure 1013 hPa
Visibility 10 km or more

METAR: EGPA 170150Z AUTO 18007KT 9999 SCT030/// 03/01 Q1013

Time: 02:15 (02:15 UTC)

Forecast

The report was made 3 hours and 19 minutes ago, at 22:56 UTC
Forecast valid from 17 at 00 UTC to 17 at 09 UTC
Wind 9 kt from the South/Southwest
Visibility 10 km or more
Scattered clouds at a height of 2500 ft
Temporary
from 17 at 03 UTC to 17 at 09 UTC
Wind 15 kt from the South/Southwest with gusts up to 25 kt
Visibility: 6000 m
Broken clouds at a height of 900 ft
rain
Probability 30% :
Temporary
from 17 at 06 UTC to 17 at 09 UTC
Visibility: 3000 m
Broken clouds at a height of 600 ft
heavy rain

TAF: EGPA 162256Z 1700/1709 20009KT 9999 SCT025 TEMPO 1703/1709 21015G25KT 6000 RA BKN009 PROB30 TEMPO 1706/1709 3000 +RA BKN006

Weather observations and forecasts of more than 4000 airports (METAR and TAF reports).

The available stations are represented by yellow and red dots on the map.

Hover mouse over dot to see the name of the station.

Then click to see weather observations and forecasts.

To change the map : click on the green buttons with a black cross to zoom in, on the green button with a dash to zoom out, or on the green arrows for adjacent maps.


METAR-TAF: